Ferdig, Montana
Current Conditions -  °F | °C
As of 4:56 AM on Monday 26 Jan 2015 (Local Time) from KCTB Reporting Station
Clear Clear  
Wind Chill: 42°   Ceiling: Unl
Heat Index: 48°   Visibility: 10mi
Dew Point: 27°   Wind: 16mph
Humidity: 44%   Direction: 250°WSW
Pressure: 29.97"   Gusts: NA
Location:  48.7543°N, 111.774°W
Report Text: KCTB 261156Z AUTO 25014KT 10SM CLR 09/M03 A2997 RMK AO2 SLP147 T00891028 10106 20050 58009
Loading
Personal Weather Stations






























Interactive Weather Map New forecast layout! Learn more

10-Day Weather Forecast

Advertisements
Track Severe Weather on mobile